Time;durP1;ratioP1;P1;durP2;ratioP2;P2;SDS_P1;SDS_P2;PMS_P1;PMS_P2;Temp;Humidity;BMP_temperature;BMP_pressure;BME280_temperature;BME280_humidity;BME280_pressure;Samples;Min_cycle;Max_cycle;Signal;HPM_P1;HPM_P2
2023/01/05 00:01:21;;;;;;;15.68;3.00;;;10.20;99.90;;;;;;4935249;28;20177;-64
2023/01/05 00:03:47;;;;;;;11.88;2.03;;;10.20;99.90;;;;;;4950113;29;20066;-64
2023/01/05 00:06:16;;;;;;;14.00;2.30;;;10.10;99.90;;;;;;4934971;28;20059;-63
2023/01/05 00:08:42;;;;;;;9.50;1.92;;;10.10;99.90;;;;;;4935320;29;20043;-63
2023/01/05 00:22:30;;;;;;;11.93;2.42;;;10.00;99.90;;;;;;4937622;29;20134;-73
2023/01/05 00:25:23;;;;;;;14.50;4.07;;;10.00;99.90;;;;;;4966273;28;20113;-71
2023/01/05 00:27:50;;;;;;;9.80;2.28;;;10.10;99.90;;;;;;4947044;29;20231;-72
2023/01/05 00:30:18;;;;;;;13.35;2.78;;;10.10;99.90;;;;;;4950463;28;20043;-72
2023/01/05 00:32:44;;;;;;;11.63;3.35;;;10.10;99.90;;;;;;4966946;28;20055;-72
2023/01/05 00:35:10;;;;;;;14.57;3.20;;;10.10;99.90;;;;;;4950343;28;20107;-72
2023/01/05 00:37:39;;;;;;;13.95;2.88;;;10.20;99.90;;;;;;4950590;29;20453;-72
2023/01/05 00:40:06;;;;;;;16.73;2.60;;;10.20;99.90;;;;;;4934861;29;20051;-72
2023/01/05 00:42:32;;;;;;;21.37;2.87;;;10.20;99.90;;;;;;4933921;29;20071;-72
2023/01/05 00:44:58;;;;;;;15.75;2.83;;;10.10;99.90;;;;;;4966756;28;20080;-71
2023/01/05 00:47:24;;;;;;;18.15;3.95;;;10.00;99.90;;;;;;4934101;29;20058;-72
2023/01/05 00:49:50;;;;;;;14.57;2.72;;;10.00;99.90;;;;;;4934704;29;20430;-71
2023/01/05 00:52:16;;;;;;;16.00;2.70;;;10.00;99.90;;;;;;4928864;29;20079;-71
2023/01/05 00:54:41;;;;;;;11.90;2.45;;;10.00;99.90;;;;;;4950278;28;20049;-71
2023/01/05 00:57:10;;;;;;;13.55;2.97;;;9.90;99.90;;;;;;4934225;29;20074;-72
2023/01/05 00:59:36;;;;;;;16.02;3.63;;;9.90;99.90;;;;;;4938838;29;20047;-72
2023/01/05 01:02:04;;;;;;;12.90;3.17;;;10.00;99.90;;;;;;4935863;28;20512;-71
2023/01/05 01:04:30;;;;;;;14.48;2.70;;;10.00;99.90;;;;;;4947448;28;20053;-71
2023/01/05 01:06:56;;;;;;;16.77;3.20;;;10.00;99.90;;;;;;4932121;29;20135;-72
2023/01/05 01:09:22;;;;;;;16.45;3.00;;;9.90;99.90;;;;;;4955530;28;20126;-72
2023/01/05 01:11:48;;;;;;;14.77;3.03;;;9.90;99.90;;;;;;4940650;29;20043;-72
2023/01/05 01:14:13;;;;;;;20.23;2.78;;;9.90;99.90;;;;;;4973267;28;20050;-72
2023/01/05 01:16:40;;;;;;;20.75;3.40;;;9.90;99.90;;;;;;4955697;28;20047;-71
2023/01/05 01:19:07;;;;;;;16.75;3.25;;;10.00;99.90;;;;;;4956997;28;20486;-72
2023/01/05 01:21:34;;;;;;;14.15;2.83;;;10.00;99.90;;;;;;4957299;28;20057;-72
2023/01/05 01:23:59;;;;;;;20.48;3.58;;;10.00;99.90;;;;;;4956646;28;20054;-72
2023/01/05 01:26:25;;;;;;;18.48;3.42;;;10.10;99.90;;;;;;4940128;29;20056;-71
2023/01/05 01:28:51;;;;;;;11.98;2.80;;;10.10;99.90;;;;;;4940901;28;20058;-72
2023/01/05 01:31:16;;;;;;;16.98;2.55;;;10.10;99.90;;;;;;4956500;29;20043;-73
2023/01/05 01:33:42;;;;;;;12.43;2.67;;;10.10;99.90;;;;;;4940295;29;20054;-72
2023/01/05 01:36:08;;;;;;;13.13;3.05;;;10.10;99.90;;;;;;4940149;28;20055;-72
2023/01/05 01:38:35;;;;;;;18.90;3.60;;;10.10;99.90;;;;;;4940783;29;20106;-74
2023/01/05 01:41:02;;;;;;;14.30;2.78;;;10.20;99.90;;;;;;4956412;28;20043;-72
2023/01/05 01:43:41;;;;;;;16.10;3.85;;;10.10;99.90;;;;;;4941290;29;20071;-72
2023/01/05 01:46:06;;;;;;;16.02;2.75;;;10.20;99.90;;;;;;4947914;29;20039;-71
2023/01/05 01:48:34;;;;;;;16.40;2.92;;;10.20;99.90;;;;;;4938736;29;20047;-72
2023/01/05 01:51:04;;;;;;;10.13;2.53;;;10.20;99.90;;;;;;4937545;29;20497;-72
2023/01/05 01:53:33;;;;;;;15.70;3.50;;;10.20;99.90;;;;;;4938867;29;20055;-72
2023/01/05 01:56:01;;;;;;;18.90;3.53;;;10.20;99.90;;;;;;4930427;28;20343;-72
2023/01/05 01:58:28;;;;;;;17.98;3.28;;;10.20;99.90;;;;;;4950230;28;20066;-72
2023/01/05 02:00:54;;;;;;;21.67;4.05;;;10.20;99.90;;;;;;4935489;28;20541;-72
2023/01/05 02:03:19;;;;;;;21.67;3.92;;;10.20;99.90;;;;;;4939564;29;20047;-73
2023/01/05 02:05:45;;;;;;;15.50;3.40;;;10.20;99.90;;;;;;4949110;28;20043;-71
2023/01/05 02:08:24;;;;;;;18.30;4.10;;;10.20;99.90;;;;;;4939224;29;20453;-72
2023/01/05 02:11:21;;;;;;;15.85;3.67;;;10.20;99.90;;;;;;4965543;28;20042;-72
2023/01/05 02:14:16;;;;;;;15.18;2.58;;;10.20;99.90;;;;;;4974301;28;20113;-72
2023/01/05 02:17:03;;;;;;;18.65;3.50;;;10.20;99.90;;;;;;4947505;28;20075;-73
2023/01/05 02:20:06;;;;;;;18.95;4.15;;;10.20;99.90;;;;;;4953150;28;20059;-72
2023/01/05 02:23:08;;;;;;;19.02;3.33;;;10.30;99.90;;;;;;4978638;28;20079;-71
2023/01/05 02:25:52;;;;;;;18.35;3.40;;;10.30;99.90;;;;;;4952523;29;20106;-72
2023/01/05 02:28:57;;;;;;;15.07;2.92;;;10.20;99.90;;;;;;4970777;28;20046;-72
2023/01/05 02:32:03;;;;;;;20.13;2.92;;;10.30;99.90;;;;;;4929520;29;20043;-72
2023/01/05 02:34:47;;;;;;;18.70;3.35;;;10.20;99.90;;;;;;4951877;28;20066;-72
2023/01/05 02:37:48;;;;;;;16.80;3.03;;;10.30;99.90;;;;;;4953806;29;20051;-73
2023/01/05 02:40:44;;;;;;;16.88;2.70;;;10.30;99.90;;;;;;4949343;28;20057;-72
2023/01/05 02:43:14;;;;;;;15.40;2.97;;;10.20;99.90;;;;;;4953202;29;20385;-73
2023/01/05 02:45:39;;;;;;;13.82;3.13;;;10.20;99.90;;;;;;4937181;29;20110;-72
2023/01/05 02:48:05;;;;;;;17.20;2.97;;;10.20;99.90;;;;;;4952804;28;20067;-71
2023/01/05 02:50:43;;;;;;;13.02;3.40;;;10.20;99.90;;;;;;4936179;29;20054;-72
2023/01/05 02:53:14;;;;;;;15.23;3.03;;;10.20;99.90;;;;;;4952094;28;20043;-71
2023/01/05 02:56:05;;;;;;;11.85;3.03;;;10.20;99.90;;;;;;4947270;28;20046;-72
2023/01/05 02:58:38;;;;;;;14.82;3.25;;;10.10;99.90;;;;;;4970472;28;20058;-71
2023/01/05 03:01:11;;;;;;;24.30;3.47;;;10.00;99.90;;;;;;4936811;29;20067;-72
2023/01/05 03:03:42;;;;;;;22.25;3.78;;;10.00;99.90;;;;;;4938344;28;20047;-72
2023/01/05 03:06:21;;;;;;;16.83;2.90;;;10.00;99.90;;;;;;4936541;29;20047;-72
2023/01/05 03:08:51;;;;;;;18.83;3.22;;;10.00;99.90;;;;;;4953006;28;20039;-72
2023/01/05 03:14:18;;;;;;;16.80;3.60;;;9.60;99.90;;;;;;4938890;29;20484;-72
2023/01/05 03:16:44;;;;;;;17.20;3.28;;;9.50;99.90;;;;;;4951470;28;20764;-72
2023/01/05 03:36:21;;;;;;;12.68;2.70;;;9.50;99.90;;;;;;4969014;28;20042;-72
2023/01/05 03:38:47;;;;;;;14.52;2.45;;;9.50;99.90;;;;;;4951124;28;20110;-72
2023/01/05 03:41:14;;;;;;;18.80;3.20;;;9.50;99.90;;;;;;4936059;29;20088;-71
2023/01/05 03:43:40;;;;;;;17.80;2.60;;;9.40;99.90;;;;;;4935579;28;20082;-72
2023/01/05 03:46:10;;;;;;;18.80;3.35;;;9.40;99.90;;;;;;4919890;29;20050;-71
2023/01/05 03:48:36;;;;;;;15.00;2.92;;;9.50;99.90;;;;;;4932074;29;20505;-72
2023/01/05 03:51:02;;;;;;;15.35;2.95;;;9.50;99.90;;;;;;4949058;29;20058;-72
2023/01/05 03:53:29;;;;;;;18.42;3.60;;;9.50;99.90;;;;;;4967506;28;20043;-71
2023/01/05 03:55:54;;;;;;;14.40;3.05;;;9.50;99.90;;;;;;4955815;28;20521;-71
2023/01/05 03:58:20;;;;;;;14.88;2.72;;;9.50;99.90;;;;;;4951168;29;20054;-71
2023/01/05 04:00:46;;;;;;;14.77;3.35;;;9.50;99.90;;;;;;4951394;28;20055;-72
2023/01/05 04:03:12;;;;;;;15.07;2.35;;;9.50;99.90;;;;;;4951462;28;20627;-72
2023/01/05 04:05:37;;;;;;;15.38;3.30;;;9.50;99.90;;;;;;4960601;28;20516;-72
2023/01/05 04:08:04;;;;;;;13.27;2.70;;;9.60;99.90;;;;;;4934868;29;20385;-72
2023/01/05 04:10:29;;;;;;;13.45;3.20;;;9.60;99.90;;;;;;4935170;28;20094;-71
2023/01/05 04:12:56;;;;;;;12.98;2.53;;;9.50;99.90;;;;;;4951184;28;20055;-71
2023/01/05 04:15:21;;;;;;;21.52;3.50;;;9.60;99.90;;;;;;4935217;29;20488;-71
2023/01/05 04:17:47;;;;;;;13.20;3.05;;;9.60;99.90;;;;;;4950977;28;20062;-71
2023/01/05 04:20:13;;;;;;;19.98;3.47;;;9.60;99.90;;;;;;4950287;28;20055;-71
2023/01/05 04:22:39;;;;;;;15.38;3.00;;;9.60;99.90;;;;;;4935213;29;20059;-71
2023/01/05 04:25:05;;;;;;;15.93;2.70;;;9.60;99.90;;;;;;4934596;29;20062;-73
2023/01/05 04:27:31;;;;;;;16.73;3.60;;;9.60;99.90;;;;;;4932065;29;20048;-71
2023/01/05 04:29:57;;;;;;;15.50;3.08;;;9.70;99.90;;;;;;4951701;28;20043;-72
2023/01/05 04:32:22;;;;;;;21.70;3.85;;;9.70;99.90;;;;;;4950372;29;20358;-72
2023/01/05 04:34:48;;;;;;;17.05;3.00;;;9.70;99.90;;;;;;4950240;28;20051;-74
2023/01/05 04:37:14;;;;;;;14.93;2.85;;;9.60;99.90;;;;;;4935497;28;20051;-71
2023/01/05 04:39:40;;;;;;;19.70;3.33;;;9.60;99.90;;;;;;4950989;29;20546;-72
2023/01/05 04:42:05;;;;;;;19.85;4.20;;;9.60;99.90;;;;;;4950641;29;20529;-72
2023/01/05 04:44:31;;;;;;;13.77;2.83;;;9.60;99.90;;;;;;4952733;28;20047;-72
2023/01/05 04:46:57;;;;;;;14.65;2.88;;;9.60;99.90;;;;;;4953221;29;20066;-72
2023/01/05 04:49:23;;;;;;;13.30;2.78;;;9.70;99.90;;;;;;4947057;28;20426;-72
2023/01/05 04:51:48;;;;;;;22.70;3.97;;;9.60;99.90;;;;;;4950899;28;20054;-71
2023/01/05 04:54:14;;;;;;;15.80;3.03;;;9.60;99.90;;;;;;4935133;28;20058;-73
2023/01/05 04:56:40;;;;;;;19.45;3.47;;;9.70;99.90;;;;;;4967088;28;20051;-72
2023/01/05 04:59:05;;;;;;;20.45;3.67;;;9.70;99.90;;;;;;4947418;28;20055;-73
2023/01/05 05:01:31;;;;;;;16.20;3.15;;;9.70;99.90;;;;;;4963958;28;20086;-72
2023/01/05 05:03:57;;;;;;;16.33;2.78;;;9.70;99.90;;;;;;4933773;29;20134;-72
2023/01/05 05:06:24;;;;;;;19.73;3.75;;;9.70;99.90;;;;;;4950257;29;20171;-72
2023/01/05 05:08:50;;;;;;;21.38;3.35;;;9.60;99.90;;;;;;4950426;29;20682;-72
2023/01/05 05:11:17;;;;;;;16.30;2.70;;;9.60;99.90;;;;;;4933708;29;20074;-73
2023/01/05 05:13:43;;;;;;;12.43;2.63;;;9.60;99.90;;;;;;4951079;28;20465;-72
2023/01/05 05:16:08;;;;;;;15.82;2.67;;;9.60;99.90;;;;;;4934791;29;20126;-71
2023/01/05 05:18:34;;;;;;;15.88;3.53;;;9.60;99.90;;;;;;4934368;28;20409;-72
2023/01/05 05:21:00;;;;;;;18.63;3.22;;;9.60;99.90;;;;;;4950052;28;20059;-71
2023/01/05 05:23:26;;;;;;;15.20;2.67;;;9.60;99.90;;;;;;4934414;28;20062;-72
2023/01/05 05:25:52;;;;;;;16.00;3.45;;;9.60;99.90;;;;;;4932243;29;20056;-72
2023/01/05 05:28:18;;;;;;;15.32;2.88;;;9.60;99.90;;;;;;4934109;29;20054;-72
2023/01/05 05:30:44;;;;;;;17.73;2.95;;;9.50;99.90;;;;;;4934326;29;20139;-71
2023/01/05 05:33:10;;;;;;;18.88;3.05;;;9.50;99.90;;;;;;4949959;28;20126;-71
2023/01/05 05:35:36;;;;;;;24.33;3.90;;;9.50;99.90;;;;;;4949935;28;20071;-72
2023/01/05 05:38:02;;;;;;;11.45;2.60;;;9.50;99.90;;;;;;4950002;29;20062;-72
2023/01/05 05:40:28;;;;;;;12.57;2.72;;;9.40;99.90;;;;;;4934600;29;20466;-72
2023/01/05 05:42:54;;;;;;;15.25;3.10;;;9.50;99.90;;;;;;4933643;29;20051;-72
2023/01/05 05:45:19;;;;;;;16.83;3.10;;;9.50;99.90;;;;;;4934381;29;20063;-72
2023/01/05 05:47:45;;;;;;;13.73;2.63;;;9.50;99.90;;;;;;4934258;29;20051;-72
2023/01/05 05:50:12;;;;;;;12.50;2.67;;;9.50;99.90;;;;;;4933748;29;20058;-72
2023/01/05 05:52:38;;;;;;;16.05;3.47;;;9.40;99.90;;;;;;4931180;29;20047;-72
2023/01/05 05:55:04;;;;;;;20.80;3.22;;;9.40;99.90;;;;;;4948572;28;20102;-72
2023/01/05 05:57:29;;;;;;;13.07;3.00;;;9.50;99.90;;;;;;4936567;29;20066;-72
2023/01/05 05:59:55;;;;;;;11.80;2.83;;;9.40;99.90;;;;;;4937551;29;20047;-72
2023/01/05 06:02:21;;;;;;;13.80;2.67;;;9.50;99.90;;;;;;4936625;28;20055;-71
2023/01/05 06:04:47;;;;;;;12.70;2.42;;;9.50;99.90;;;;;;4936332;29;20079;-71
2023/01/05 06:07:12;;;;;;;14.73;2.60;;;9.50;99.90;;;;;;4955689;29;20047;-72
2023/01/05 06:09:38;;;;;;;15.63;2.80;;;9.50;99.90;;;;;;4953951;29;20129;-72
2023/01/05 06:12:04;;;;;;;12.32;2.67;;;9.40;99.90;;;;;;4952219;29;20059;-71
2023/01/05 06:14:31;;;;;;;13.73;2.85;;;9.40;99.90;;;;;;4938155;29;20051;-71
2023/01/05 06:16:57;;;;;;;15.25;3.40;;;9.40;99.90;;;;;;4969619;28;20110;-72
2023/01/05 06:19:22;;;;;;;20.10;3.47;;;9.40;99.90;;;;;;4949967;29;20648;-73
2023/01/05 06:21:48;;;;;;;15.70;3.30;;;9.50;99.90;;;;;;4921550;29;20047;-72
2023/01/05 06:24:14;;;;;;;21.25;2.92;;;9.50;99.90;;;;;;4936201;28;20086;-72
2023/01/05 06:26:40;;;;;;;20.73;3.63;;;9.40;99.90;;;;;;4936752;29;20495;-72
2023/01/05 06:29:06;;;;;;;17.42;3.67;;;9.40;99.90;;;;;;4952250;29;20047;-71
2023/01/05 06:31:31;;;;;;;15.10;3.33;;;9.50;99.90;;;;;;4950359;28;20039;-71
2023/01/05 06:33:57;;;;;;;17.08;3.10;;;9.50;99.90;;;;;;4952300;29;20059;-71
2023/01/05 06:36:23;;;;;;;14.50;3.05;;;9.60;99.90;;;;;;4937071;28;20047;-72
2023/01/05 06:38:49;;;;;;;14.25;3.20;;;9.60;99.90;;;;;;4936933;29;20481;-70
2023/01/05 06:41:14;;;;;;;13.18;2.40;;;9.60;99.90;;;;;;4952831;28;20101;-72
2023/01/05 06:43:40;;;;;;;11.43;2.92;;;9.60;99.90;;;;;;4937578;29;20047;-71
2023/01/05 06:46:06;;;;;;;16.48;2.83;;;9.60;99.90;;;;;;4936871;28;20043;-71
2023/01/05 06:48:32;;;;;;;11.57;2.85;;;9.60;99.90;;;;;;4936107;28;20050;-71
2023/01/05 06:50:57;;;;;;;14.18;2.80;;;9.60;99.90;;;;;;4936621;29;20532;-71
2023/01/05 06:53:24;;;;;;;13.50;2.40;;;9.60;99.90;;;;;;4953024;28;20228;-72
2023/01/05 06:55:50;;;;;;;13.90;2.50;;;9.60;99.90;;;;;;4936143;29;20656;-72
2023/01/05 06:58:17;;;;;;;12.85;2.58;;;9.60;99.90;;;;;;4949968;29;20087;-71
2023/01/05 07:00:43;;;;;;;11.32;2.20;;;9.60;99.90;;;;;;4968277;28;20070;-71
2023/01/05 07:03:11;;;;;;;15.80;3.15;;;9.60;99.90;;;;;;4935955;29;20054;-71
2023/01/05 07:05:37;;;;;;;15.68;2.67;;;9.60;99.90;;;;;;4967165;28;20047;-72
2023/01/05 07:08:03;;;;;;;13.05;2.38;;;9.50;99.90;;;;;;4936095;29;20381;-71
2023/01/05 07:10:29;;;;;;;11.43;2.58;;;9.50;99.90;;;;;;4951966;29;20081;-72
2023/01/05 07:12:55;;;;;;;8.82;2.53;;;9.40;99.90;;;;;;4952551;28;20121;-72
2023/01/05 07:15:20;;;;;;;11.50;2.97;;;9.30;99.90;;;;;;4954387;28;20477;-72
2023/01/05 07:17:46;;;;;;;11.57;2.67;;;9.20;99.90;;;;;;4922129;29;20059;-71
2023/01/05 07:20:12;;;;;;;11.05;2.67;;;9.20;99.90;;;;;;4951836;28;20566;-71
2023/01/05 07:22:37;;;;;;;11.20;2.58;;;9.20;99.90;;;;;;4968392;28;20051;-71
2023/01/05 07:25:03;;;;;;;7.78;2.97;;;9.10;99.90;;;;;;4951598;28;20694;-71
2023/01/05 07:27:30;;;;;;;15.07;2.75;;;9.10;99.90;;;;;;4930630;29;20089;-71
2023/01/05 07:29:56;;;;;;;13.45;2.90;;;9.10;99.90;;;;;;4952097;28;20361;-71
2023/01/05 07:32:21;;;;;;;15.63;2.88;;;9.20;99.90;;;;;;4936003;28;20039;-70
2023/01/05 07:34:49;;;;;;;15.25;2.60;;;9.20;99.90;;;;;;4949719;28;20507;-71
2023/01/05 07:37:15;;;;;;;14.73;3.22;;;9.20;99.90;;;;;;4936162;29;20113;-70
2023/01/05 07:39:41;;;;;;;20.55;3.58;;;9.20;99.90;;;;;;4936580;29;20047;-71
2023/01/05 07:42:07;;;;;;;13.77;3.20;;;9.20;99.90;;;;;;4950978;28;20043;-70
2023/01/05 07:44:33;;;;;;;13.00;2.75;;;9.20;99.90;;;;;;4951937;29;20043;-71
2023/01/05 07:46:59;;;;;;;14.10;3.30;;;9.20;99.90;;;;;;4935958;29;20154;-71
2023/01/05 07:49:25;;;;;;;20.00;3.30;;;9.20;99.90;;;;;;4951745;28;20039;-72
2023/01/05 07:51:50;;;;;;;15.23;2.88;;;9.30;99.90;;;;;;4931535;29;20043;-71
2023/01/05 07:54:16;;;;;;;16.88;3.13;;;9.30;99.90;;;;;;4964866;28;20145;-71
2023/01/05 07:56:42;;;;;;;14.55;3.20;;;9.30;99.90;;;;;;4950367;29;20429;-73
2023/01/05 07:59:08;;;;;;;16.52;3.33;;;9.30;99.90;;;;;;4945897;28;20145;-73
2023/01/05 08:01:33;;;;;;;14.95;2.90;;;9.30;99.90;;;;;;4935481;29;20090;-73
2023/01/05 08:03:59;;;;;;;11.40;2.78;;;9.30;99.90;;;;;;4932706;29;20048;-73
2023/01/05 08:06:25;;;;;;;15.75;4.05;;;9.40;99.90;;;;;;4963889;28;20051;-72
2023/01/05 08:08:51;;;;;;;16.10;3.42;;;9.40;99.90;;;;;;4967482;28;20071;-73
2023/01/05 08:11:19;;;;;;;13.38;2.40;;;9.40;99.90;;;;;;4935359;29;20074;-74
2023/01/05 08:14:01;;;;;;;18.55;4.05;;;9.40;99.90;;;;;;4947325;28;20039;-73
2023/01/05 08:16:29;;;;;;;16.63;3.60;;;9.30;99.90;;;;;;4952879;28;20118;-73
2023/01/05 08:18:54;;;;;;;14.57;3.50;;;9.30;99.90;;;;;;4930983;29;20075;-73
2023/01/05 08:21:20;;;;;;;14.10;3.13;;;9.20;99.90;;;;;;4966807;28;20477;-72
2023/01/05 08:23:46;;;;;;;13.43;3.25;;;9.30;99.90;;;;;;4950658;28;20047;-71
2023/01/05 08:26:14;;;;;;;18.42;3.72;;;9.30;99.90;;;;;;4951686;28;20047;-72
2023/01/05 08:28:40;;;;;;;13.20;2.75;;;9.30;99.90;;;;;;4935737;28;20050;-72
2023/01/05 08:31:07;;;;;;;21.08;3.35;;;9.30;99.90;;;;;;4934837;29;20043;-72
2023/01/05 08:33:33;;;;;;;13.23;3.27;;;9.40;99.90;;;;;;4935953;29;20047;-72
2023/01/05 08:35:59;;;;;;;9.65;2.58;;;9.30;99.90;;;;;;4966483;28;20769;-71
2023/01/05 08:38:25;;;;;;;10.82;3.05;;;9.40;99.90;;;;;;4951760;28;20058;-72
2023/01/05 08:40:51;;;;;;;22.20;3.35;;;9.30;99.90;;;;;;4931997;29;20055;-72
2023/01/05 08:43:18;;;;;;;16.10;3.72;;;9.30;99.90;;;;;;4950633;29;20141;-72
2023/01/05 08:45:48;;;;;;;13.18;3.72;;;9.20;99.90;;;;;;4934998;29;20061;-73
2023/01/05 08:48:14;;;;;;;19.33;3.05;;;9.20;99.90;;;;;;4951089;28;20123;-72
2023/01/05 08:50:40;;;;;;;16.75;3.33;;;9.10;99.90;;;;;;4951185;29;20045;-72
2023/01/05 08:53:06;;;;;;;17.35;4.05;;;9.10;99.90;;;;;;4934783;29;20097;-71
2023/01/05 08:55:32;;;;;;;15.63;4.03;;;9.20;99.90;;;;;;4933319;29;20504;-71
2023/01/05 08:57:58;;;;;;;15.40;3.55;;;9.20;99.90;;;;;;4934337;29;20385;-70
2023/01/05 09:00:23;;;;;;;15.55;3.25;;;9.20;99.90;;;;;;4950357;29;20070;-72
2023/01/05 09:02:49;;;;;;;20.85;4.30;;;9.20;99.90;;;;;;4934792;29;20600;-71
2023/01/05 09:05:15;;;;;;;16.85;3.15;;;9.20;99.90;;;;;;4950168;29;20066;-71
2023/01/05 09:07:41;;;;;;;14.65;3.72;;;9.30;99.90;;;;;;4947810;28;20189;-72
2023/01/05 09:10:07;;;;;;;13.25;3.33;;;9.20;99.90;;;;;;4931863;29;20059;-72
2023/01/05 09:12:37;;;;;;;17.20;3.75;;;9.20;99.90;;;;;;4931196;29;20043;-71
2023/01/05 09:15:03;;;;;;;20.63;5.03;;;9.20;99.90;;;;;;4966338;28;20047;-72
2023/01/05 09:17:29;;;;;;;13.38;3.75;;;9.20;99.90;;;;;;4965901;28;20050;-71
2023/01/05 09:19:55;;;;;;;17.50;3.83;;;9.20;99.90;;;;;;4949956;28;20113;-72
2023/01/05 09:22:21;;;;;;;15.55;3.40;;;9.20;99.90;;;;;;4966588;28;20054;-71
2023/01/05 09:24:46;;;;;;;16.85;3.95;;;9.20;99.90;;;;;;4933547;29;20536;-72
2023/01/05 09:27:12;;;;;;;17.33;3.67;;;9.20;99.90;;;;;;4949386;29;20479;-73
2023/01/05 09:29:38;;;;;;;15.57;3.92;;;9.30;99.90;;;;;;4951702;28;20051;-73
2023/01/05 09:32:04;;;;;;;16.83;3.63;;;9.30;99.90;;;;;;4953206;28;20098;-73
2023/01/05 09:34:30;;;;;;;13.60;2.90;;;9.30;99.90;;;;;;4938558;29;20043;-73
2023/01/05 09:36:56;;;;;;;17.23;3.95;;;9.30;99.90;;;;;;4953093;28;20062;-74
2023/01/05 09:39:22;;;;;;;13.25;3.10;;;9.30;99.90;;;;;;4953806;29;20043;-72
2023/01/05 09:41:49;;;;;;;11.48;3.08;;;9.30;99.90;;;;;;4938339;29;20079;-71
2023/01/05 09:44:26;;;;;;;11.88;3.45;;;9.30;99.90;;;;;;4953106;29;20050;-71
2023/01/05 09:46:51;;;;;;;11.52;3.55;;;9.30;99.90;;;;;;4970750;28;20051;-72
2023/01/05 09:49:20;;;;;;;17.00;3.45;;;9.30;99.90;;;;;;4954604;28;20047;-71
2023/01/05 09:51:48;;;;;;;8.95;2.85;;;9.30;99.90;;;;;;4923014;29;20047;-71
2023/01/05 09:54:16;;;;;;;7.88;2.03;;;9.30;99.90;;;;;;4933789;29;20109;-71
2023/01/05 09:56:43;;;;;;;13.50;3.05;;;9.30;99.90;;;;;;4937562;28;20190;-72
2023/01/05 09:59:15;;;;;;;9.98;3.25;;;9.30;99.90;;;;;;4954148;28;20047;-71
2023/01/05 10:01:40;;;;;;;13.35;3.45;;;9.40;99.90;;;;;;4953588;29;20441;-72
2023/01/05 10:04:23;;;;;;;14.52;3.30;;;9.30;99.90;;;;;;4937405;29;20056;-71
2023/01/05 10:06:53;;;;;;;14.52;3.70;;;9.30;99.90;;;;;;4938382;29;20071;-73
2023/01/05 10:09:21;;;;;;;13.98;3.30;;;9.20;99.90;;;;;;4936553;29;20358;-71
2023/01/05 10:15:11;;;;;;;15.63;3.58;;;9.20;99.90;;;;;;4946274;29;21095;-73
2023/01/05 10:17:40;;;;;;;15.70;3.67;;;9.20;99.90;;;;;;4961562;28;20051;-73
2023/01/05 10:20:17;;;;;;;2.85;0.93;;;9.10;99.90;;;;;;4954693;28;20051;-72
2023/01/05 10:22:55;;;;;;;2.47;0.80;;;8.50;99.90;;;;;;4954263;28;20054;-72
2023/01/05 10:25:48;;;;;;;5.28;0.70;;;8.00;99.90;;;;;;4951940;28;20058;-72
2023/01/05 10:28:34;;;;;;;2.72;0.77;;;7.90;99.90;;;;;;4953109;29;20074;-71
2023/01/05 10:31:39;;;;;;;3.53;0.80;;;7.80;99.90;;;;;;4953167;28;20043;-71
2023/01/05 10:34:10;;;;;;;2.05;0.60;;;7.80;99.90;;;;;;4957740;28;20123;-72
2023/01/05 10:37:02;;;;;;;2.10;0.85;;;7.80;99.90;;;;;;4952820;29;20073;-73
2023/01/05 10:39:46;;;;;;;3.50;0.75;;;7.70;99.90;;;;;;4953464;29;20043;-73
2023/01/05 10:42:12;;;;;;;4.63;0.60;;;7.60;99.90;;;;;;4951625;28;20093;-71
2023/01/05 10:44:55;;;;;;;3.30;0.60;;;7.60;99.90;;;;;;4953651;29;20126;-72
2023/01/05 10:47:21;;;;;;;3.70;0.63;;;7.60;99.90;;;;;;4948741;28;20066;-73
2023/01/05 10:49:47;;;;;;;2.33;0.40;;;7.50;99.90;;;;;;4968978;28;20043;-74
2023/01/05 10:52:15;;;;;;;2.55;0.55;;;7.50;99.90;;;;;;4952856;28;20070;-73
2023/01/05 10:54:46;;;;;;;1.48;0.50;;;7.50;99.90;;;;;;4934890;29;20055;-74
2023/01/05 10:57:32;;;;;;;3.47;0.70;;;7.60;99.90;;;;;;4952722;29;20159;-74
2023/01/05 11:00:03;;;;;;;3.97;0.50;;;7.50;99.90;;;;;;4967991;28;20062;-75
2023/01/05 11:02:34;;;;;;;1.13;0.50;;;7.50;99.90;;;;;;4953729;28;20785;-74
2023/01/05 11:05:02;;;;;;;4.30;0.63;;;7.60;99.90;;;;;;4936882;29;20051;-73
2023/01/05 11:07:28;;;;;;;3.03;0.57;;;7.60;99.90;;;;;;4952627;29;20047;-71
2023/01/05 11:09:53;;;;;;;2.70;0.93;;;7.60;99.90;;;;;;4936152;28;20492;-71
2023/01/05 11:12:21;;;;;;;2.80;0.70;;;7.70;99.90;;;;;;4920077;28;20046;-72
2023/01/05 11:14:53;;;;;;;3.45;0.70;;;7.90;99.90;;;;;;4937869;29;20074;-72
2023/01/05 11:17:20;;;;;;;3.58;1.02;;;7.80;99.90;;;;;;4920895;29;20051;-68
2023/01/05 11:19:48;;;;;;;3.03;0.63;;;7.90;99.90;;;;;;4935797;29;20400;-65
2023/01/05 11:22:33;;;;;;;4.68;0.73;;;7.90;99.90;;;;;;4949082;28;20053;-67
2023/01/05 11:25:30;;;;;;;3.00;1.00;;;8.00;99.90;;;;;;4950699;29;20074;-67
2023/01/05 11:28:03;;;;;;;3.13;1.20;;;8.00;99.90;;;;;;4951309;28;20058;-70
2023/01/05 11:30:29;;;;;;;4.43;1.10;;;8.10;99.90;;;;;;4968244;28;20641;-68
2023/01/05 11:32:57;;;;;;;8.82;1.65;;;8.10;99.90;;;;;;4950528;29;20039;-67
2023/01/05 11:35:31;;;;;;;4.40;1.30;;;8.20;99.90;;;;;;4952067;28;20465;-68
2023/01/05 11:37:57;;;;;;;4.50;1.25;;;8.30;99.90;;;;;;4949796;28;20051;-66
2023/01/05 11:40:25;;;;;;;3.75;1.35;;;8.30;99.90;;;;;;4964748;28;20054;-68
2023/01/05 11:42:51;;;;;;;3.65;0.95;;;8.40;99.90;;;;;;4951199;28;20402;-68
2023/01/05 11:45:39;;;;;;;2.80;1.23;;;8.40;99.90;;;;;;4950335;28;20089;-67
2023/01/05 11:48:08;;;;;;;3.38;1.30;;;8.50;99.90;;;;;;4917997;29;20074;-68
2023/01/05 11:50:47;;;;;;;3.58;1.10;;;8.40;99.90;;;;;;4935697;28;20075;-68
2023/01/05 11:53:39;;;;;;;5.43;1.33;;;8.40;99.90;;;;;;4933742;29;20551;-67
2023/01/05 11:56:21;;;;;;;5.30;1.13;;;8.40;99.90;;;;;;4929231;29;20047;-66
2023/01/05 11:58:48;;;;;;;2.65;0.90;;;8.50;99.90;;;;;;4934858;29;20094;-69
2023/01/05 12:01:35;;;;;;;4.13;0.90;;;8.50;99.90;;;;;;4932933;28;21041;-68
2023/01/05 12:04:21;;;;;;;4.68;0.90;;;8.50;99.90;;;;;;4966602;28;20558;-66
2023/01/05 12:06:50;;;;;;;6.20;1.50;;;8.50;99.90;;;;;;4948215;28;20142;-67
2023/01/05 12:09:34;;;;;;;4.88;1.40;;;8.50;99.90;;;;;;4950219;28;20047;-68
2023/01/05 12:12:13;;;;;;;5.13;1.23;;;8.70;99.90;;;;;;4950725;28;20368;-66
2023/01/05 12:15:11;;;;;;;5.93;1.48;;;8.80;99.90;;;;;;4950768;29;20051;-66
2023/01/05 12:17:43;;;;;;;3.97;0.90;;;8.70;99.90;;;;;;4947932;29;20398;-65
2023/01/05 12:20:32;;;;;;;4.40;1.10;;;8.70;99.90;;;;;;4950576;29;20368;-66
2023/01/05 12:23:13;;;;;;;3.67;1.27;;;8.80;99.90;;;;;;4960420;28;20051;-67
2023/01/05 12:26:03;;;;;;;3.67;1.05;;;8.80;99.90;;;;;;4950522;29;20051;-66
2023/01/05 12:28:43;;;;;;;4.22;1.02;;;8.80;99.90;;;;;;4966814;28;20043;-66
2023/01/05 12:31:30;;;;;;;6.05;1.40;;;8.80;99.90;;;;;;4950967;29;20075;-68
2023/01/05 12:34:02;;;;;;;3.00;0.90;;;8.70;99.90;;;;;;4948838;28;20050;-68
2023/01/05 12:36:59;;;;;;;4.70;1.20;;;8.70;99.90;;;;;;4950160;28;20137;-69
2023/01/05 12:39:33;;;;;;;3.10;1.00;;;8.80;99.90;;;;;;4965839;28;20052;-69
2023/01/05 12:42:24;;;;;;;3.60;1.05;;;8.80;99.90;;;;;;4950261;29;20485;-69
2023/01/05 12:44:58;;;;;;;6.07;1.55;;;8.80;99.90;;;;;;4920330;29;20397;-67
2023/01/05 12:47:33;;;;;;;4.22;1.20;;;8.80;99.90;;;;;;4950015;29;20066;-68
2023/01/05 12:50:24;;;;;;;8.05;1.27;;;8.70;99.90;;;;;;4943799;28;20541;-69
2023/01/05 12:52:53;;;;;;;2.90;0.77;;;8.70;99.90;;;;;;4920834;29;20141;-69
2023/01/05 12:55:36;;;;;;;2.60;0.80;;;8.60;99.90;;;;;;4944627;28;20055;-66
2023/01/05 12:58:17;;;;;;;4.03;1.13;;;8.70;99.90;;;;;;4950701;28;20438;-69
2023/01/05 13:00:46;;;;;;;3.95;0.95;;;8.70;99.90;;;;;;4947292;29;20134;-68
2023/01/05 13:03:37;;;;;;;5.55;1.08;;;8.80;99.90;;;;;;4949316;28;20055;-68
2023/01/05 13:06:04;;;;;;;4.93;1.13;;;8.80;99.90;;;;;;4954157;28;20047;-69
2023/01/05 13:08:37;;;;;;;4.50;1.10;;;8.90;99.90;;;;;;4933646;29;20049;-68
2023/01/05 13:11:26;;;;;;;3.85;1.02;;;8.90;99.90;;;;;;4931396;28;20603;-69
2023/01/05 13:14:05;;;;;;;2.22;0.63;;;8.80;99.90;;;;;;4935546;29;20133;-67
2023/01/05 13:17:01;;;;;;;4.22;1.02;;;8.70;99.90;;;;;;4963939;28;20074;-68
2023/01/05 13:19:40;;;;;;;5.57;0.80;;;8.80;99.90;;;;;;4958778;28;20051;-66
2023/01/05 13:22:43;;;;;;;4.95;1.08;;;8.90;99.90;;;;;;4934499;28;20047;-72
2023/01/05 13:25:23;;;;;;;4.18;0.80;;;9.10;99.90;;;;;;4945104;28;20530;-73
2023/01/05 13:27:49;;;;;;;3.83;1.40;;;9.10;99.90;;;;;;4943599;28;20047;-71
2023/01/05 13:30:22;;;;;;;4.15;0.88;;;9.00;99.90;;;;;;4938489;28;20053;-72
2023/01/05 13:33:07;;;;;;;3.38;0.98;;;9.00;99.90;;;;;;4949731;28;20043;-72
2023/01/05 13:35:44;;;;;;;2.33;1.00;;;8.80;99.90;;;;;;4949419;28;20039;-72
2023/01/05 13:38:57;;;;;;;3.90;1.25;;;8.70;99.90;;;;;;4948503;28;20081;-72
2023/01/05 13:42:00;;;;;;;2.50;0.80;;;8.70;99.90;;;;;;4926940;29;20047;-64